^^
Station Historical Data
Daily Summary for January 04, 2018 Units:  Metric    English   Both
« Previous Day
Next Day »
Daily Weekly Monthly Yearly Custom
  High: Low: Average:
Temperature: -17.8 °C 21.5 °C 26 °C
Dew Point: -17.8 °C 6.3 °C 8.1 °C
Humidity: Humidity% 24% 32%
Wind Speed: 0km/h -1609.1km/h -19.5km/h
Wind Gust: 0km/h - -
Wind- -
Pressure: 0 hPa 1006.3 hPa -
Precipitation: 0 mm    
Historical Graphs
 
 
Tabular Data for January 04, 2018
Time Temperature Dew Point Pressure Wind Wind Speed Wind Gust Humidity Rainfall Rate (Hourly) solar Conditions
-17.8 °C -17.8 °C 0 hPa Calm     Humidity% 0 mm SoftwareType W/m2 Conditions
09:07 21.5 °C 9.7 °C 1024.6 hPa North -1609.1 km/h -1607.7 km/h 47% 0 mm meteobridge W/m2
09:15 21.7 °C 9.9 °C 1024.6 hPa ENE 14.3 km/h 30.6 km/h 47% 0 mm meteobridge W/m2
09:17 21.8 °C 10 °C 1024.6 hPa ENE 16.3 km/h 32.2 km/h 47% 0 mm meteobridge W/m2
09:21 22.2 °C 10 °C 1024.6 hPa NE 16.3 km/h 20.9 km/h 46% 0 mm meteobridge W/m2
09:25 22.8 °C 10.2 °C 1024.6 hPa NE 9.7 km/h 19.3 km/h 45% 0 mm meteobridge W/m2
09:29 23.2 °C 10.3 °C 1024.6 hPa NE 7.9 km/h 24.1 km/h 44% 0 mm meteobridge W/m2
09:35 23.1 °C 10.2 °C 1024.6 hPa NE 17.7 km/h 27.4 km/h 44% 0 mm meteobridge W/m2
09:38 23.2 °C 10.3 °C 1024.6 hPa NNE 28.8 km/h 37 km/h 44% 0 mm meteobridge W/m2
09:44 23.3 °C 10.4 °C 1024.3 hPa North 20.9 km/h 30.6 km/h 44% 0 mm meteobridge W/m2
09:48 23.3 °C 10 °C 1024.6 hPa NE 27.4 km/h 33.8 km/h 43% 0 mm meteobridge W/m2
09:54 23.3 °C 10.4 °C 1024.6 hPa NE 14.3 km/h 33.8 km/h 44% 0 mm meteobridge W/m2
10:00 23.7 °C 10.4 °C 1024.6 hPa NNE 28.8 km/h 30.6 km/h 43% 0 mm meteobridge W/m2
10:02 23.7 °C 10.4 °C 1024.6 hPa North 30.6 km/h 37 km/h 43% 0 mm meteobridge W/m2
10:08 23.8 °C 10.5 °C 1024.6 hPa ENE 14.3 km/h 30.6 km/h 43% 0 mm meteobridge W/m2
10:14 24.4 °C 10.3 °C 1024.3 hPa NNE 27.4 km/h 33.8 km/h 41% 0 mm meteobridge W/m2
10:20 24.7 °C 10.2 °C 1024.6 hPa NE 20.9 km/h 25.7 km/h 40% 0 mm meteobridge W/m2
10:26 25.2 °C 10.6 °C 1024.3 hPa NE 11.1 km/h 20.9 km/h 40% 0 mm meteobridge W/m2
10:32 25.4 °C 10.4 °C 1024.6 hPa NE 16.3 km/h 22.5 km/h 39% 0 mm meteobridge W/m2
10:38 25.7 °C 10.7 °C 1024.3 hPa East 3.2 km/h 19.3 km/h 39% 0 mm meteobridge W/m2
10:44 25.8 °C 10.4 °C 1024.6 hPa NE 22.7 km/h 25.7 km/h 38% 0 mm meteobridge W/m2
10:52 25.6 °C 9.8 °C 1024.6 hPa NNW 22.7 km/h 38.6 km/h 37% 0 mm meteobridge W/m2
10:54 25.3 °C 10 °C 1006.3 hPa NNE 24.1 km/h 32.2 km/h 38% 0 mm meteobridge W/m2
11:00 24.8 °C 9.5 °C 1024.6 hPa NNE 14.3 km/h 33.8 km/h 38% 0 mm meteobridge W/m2
11:06 25.2 °C 9.1 °C 1024.6 hPa NE 9.7 km/h 35.4 km/h 36% 0 mm meteobridge W/m2
11:13 25.1 °C 9 °C 1024.6 hPa WNW 4.7 km/h 20.9 km/h 36% 0 mm meteobridge W/m2
11:19 25.7 °C 9.1 °C 1024.6 hPa North 17.7 km/h 30.6 km/h 35% 0 mm meteobridge W/m2
11:25 25.9 °C 9.3 °C 1024.6 hPa NNW 27.4 km/h 29 km/h 35% 0 mm meteobridge W/m2
11:31 26.1 °C 6.7 °C 1024.6 hPa NNE 11.1 km/h 27.4 km/h 29% 0 mm meteobridge W/m2
11:37 26.6 °C 9.4 °C 1024.3 hPa NNE 25.9 km/h 35.4 km/h 34% 0 mm meteobridge W/m2
11:43 26.2 °C 8.2 °C 1024.6 hPa NNE 19.5 km/h 29 km/h 32% 0 mm meteobridge W/m2
11:49 26.1 °C 8.1 °C 1024.3 hPa NNE 16.3 km/h 24.1 km/h 32% 0 mm meteobridge W/m2
11:53 26.2 °C 7.7 °C 1024.3 hPa NE 20.9 km/h 38.6 km/h 31% 0 mm meteobridge W/m2
11:59 26.7 °C 7.7 °C 1024.3 hPa ENE 13 km/h 25.7 km/h 30% 0 mm meteobridge W/m2
12:01 26.9 °C 7.4 °C 1024.3 hPa ESE 9.7 km/h 19.3 km/h 29% 0 mm meteobridge W/m2
12:07 27.4 °C 7.3 °C 1024.3 hPa NE 11.1 km/h 17.7 km/h 28% 0 mm meteobridge W/m2
12:13 27.7 °C 8 °C 1024.3 hPa North 25.9 km/h 29 km/h 29% 0 mm meteobridge W/m2
12:19 27.7 °C 7.5 °C 1024.3 hPa North 22.7 km/h 25.7 km/h 28% 0 mm meteobridge W/m2
12:25 27.1 °C 7.5 °C 1024.3 hPa ENE 11.1 km/h 14.5 km/h 29% 0 mm meteobridge W/m2
12:32 27.7 °C 8.5 °C 1023.9 hPa NE 1.4 km/h 8 km/h 30% 0 mm meteobridge W/m2
12:38 27.3 °C 8.2 °C 1023.9 hPa NNE 6.4 km/h 25.7 km/h 30% 0 mm meteobridge W/m2
12:44 27.2 °C 8.1 °C 1023.9 hPa NE 11.1 km/h 29 km/h 30% 0 mm meteobridge W/m2
12:50 26.8 °C 8.3 °C 1023.6 hPa North 11.1 km/h 25.7 km/h 31% 0 mm meteobridge W/m2
12:56 27.2 °C 8.6 °C 1023.6 hPa NNE 11.1 km/h 27.4 km/h 31% 0 mm meteobridge W/m2
13:02 28 °C 7.8 °C 1023.6 hPa ENE 9.7 km/h 33.8 km/h 28% 0 mm meteobridge W/m2
13:06 28 °C 7.3 °C 1023.9 hPa NNE 20.9 km/h 30.6 km/h 27% 0 mm meteobridge W/m2
13:12 27 °C 6.9 °C 1023.9 hPa WNW 17.7 km/h 32.2 km/h 28% 0 mm meteobridge W/m2
13:18 27.8 °C 7.6 °C 1023.9 hPa NNW 6.4 km/h 20.9 km/h 28% 0 mm meteobridge W/m2
13:22 27.7 °C 7.5 °C 1023.6 hPa NE 6.4 km/h 20.9 km/h 28% 0 mm meteobridge W/m2
13:28 27.3 °C 7.7 °C 1023.6 hPa ENE 13 km/h 19.3 km/h 29% 0 mm meteobridge W/m2
13:35 27.2 °C 7.6 °C 1023.6 hPa NE 9.7 km/h 24.1 km/h 29% 0 mm meteobridge W/m2
13:43 26.2 °C 6.8 °C 1023.2 hPa NE 16.3 km/h 29 km/h 29% 0 mm meteobridge W/m2
13:49 27.1 °C 7 °C 1023.2 hPa NE 9.7 km/h 20.9 km/h 28% 0 mm meteobridge W/m2
13:55 28.6 °C 7.2 °C 1022.9 hPa NNE 9.7 km/h 16.1 km/h 26% 0 mm meteobridge W/m2
14:01 28.7 °C 7.3 °C 1022.9 hPa NNE 4.7 km/h 11.3 km/h 26% 0 mm meteobridge W/m2
14:09 28.4 °C 7 °C 1022.6 hPa NE 3.2 km/h 9.7 km/h 26% 0 mm meteobridge W/m2
14:15 28 °C 6.7 °C 1022.6 hPa NNE 7.9 km/h 24.1 km/h 26% 0 mm meteobridge W/m2
14:21 28.3 °C 7 °C 1022.2 hPa NNE 24.1 km/h 24.1 km/h 26% 0 mm meteobridge W/m2
14:34 29.3 °C 7.2 °C 1022.2 hPa NNE 9.7 km/h 17.7 km/h 25% 0 mm meteobridge W/m2
14:40 29.4 °C 7.3 °C 1022.2 hPa NNE 19.5 km/h 25.7 km/h 25% 0 mm meteobridge W/m2
14:46 28.3 °C 7 °C 1022.2 hPa NE 6.4 km/h 20.9 km/h 26% 0 mm meteobridge W/m2
14:54 29.2 °C 7.2 °C 1022.2 hPa NNE 6.4 km/h 19.3 km/h 25% 0 mm meteobridge W/m2
14:56 29.6 °C 7.5 °C 1022.2 hPa NE 6.4 km/h 22.5 km/h 25% 0 mm meteobridge W/m2
15:02 29.4 °C 6.7 °C 1021.9 hPa NE 6.4 km/h 9.7 km/h 24% 0 mm meteobridge W/m2
15:08 28.9 °C 6.9 °C 1021.9 hPa Calm   4.8 km/h 25% 0 mm meteobridge W/m2
15:14 28.4 °C 7 °C 1021.9 hPa SE 3.2 km/h 8 km/h 26% 0 mm meteobridge W/m2
15:16 28.4 °C 6.5 °C 1021.9 hPa NE 3.2 km/h 8 km/h 25% 0 mm meteobridge W/m2
15:22 28.2 °C 6.3 °C 1021.9 hPa North 7.9 km/h 11.3 km/h 25% 0 mm meteobridge W/m2
15:29 28.8 °C 6.8 °C 1021.6 hPa NNW 22.7 km/h 22.7 km/h 25% 0 mm meteobridge W/m2
15:37 29.3 °C 7.2 °C 1021.6 hPa NNE 11.1 km/h 29 km/h 25% 0 mm meteobridge W/m2
15:43 28.9 °C 6.9 °C 1021.6 hPa NNE 4.7 km/h 19.3 km/h 25% 0 mm meteobridge W/m2
15:45 28.8 °C 6.8 °C 1021.6 hPa North 9.7 km/h 14.5 km/h 25% 0 mm meteobridge W/m2
15:53 27.7 °C 6.5 °C 1021.6 hPa NE 1.4 km/h 6.4 km/h 26% 0 mm meteobridge W/m2
15:59 27.5 °C 6.3 °C 1021.6 hPa SSW 1.4 km/h 8 km/h 26% 0 mm meteobridge W/m2
16:06 27.9 °C 6.6 °C 1021.2 hPa SW 1.4 km/h 1.6 km/h 26% 0 mm meteobridge W/m2
16:08 28.4 °C 6.5 °C 1021.2 hPa NW 1.4 km/h 11.3 km/h 25% 0 mm meteobridge W/m2
16:14 29.6 °C 6.9 °C 1021.2 hPa NNE 20.9 km/h 22.5 km/h 24% 0 mm meteobridge W/m2
16:26 28.4 °C 7 °C 1021.2 hPa NNE 6.4 km/h 16.1 km/h 26% 0 mm meteobridge W/m2
16:32 27.9 °C 7.2 °C 1021.2 hPa NNE 24.1 km/h 25.7 km/h 27% 0 mm meteobridge W/m2
16:36 27.7 °C 7 °C 1021.2 hPa North 13 km/h 16.1 km/h 27% 0 mm meteobridge W/m2
16:38 27.6 °C 6.9 °C 1021.2 hPa North 7.9 km/h 17.7 km/h 27% 0 mm meteobridge W/m2
16:46 27.7 °C 7 °C 1020.9 hPa North 7.9 km/h 12.9 km/h 27% 0 mm meteobridge W/m2
16:48 27.7 °C 7 °C 1020.9 hPa NNW 1.4 km/h 11.3 km/h 27% 0 mm meteobridge W/m2
16:56 28.5 °C 8.2 °C 1020.9 hPa NE 17.7 km/h 30.6 km/h 28% 0 mm meteobridge W/m2
17:02 27.8 °C 9.6 °C 1020.9 hPa NNE 40.4 km/h 46.7 km/h 32% 0 mm meteobridge W/m2
17:13 25.9 °C 9.3 °C 1021.2 hPa NNE 20.9 km/h 35.4 km/h 35% 0 mm meteobridge W/m2
17:23 26.4 °C 9.3 °C 1021.2 hPa North 22.7 km/h 33.8 km/h 34% 0 mm meteobridge W/m2
17:37 26.4 °C 9.3 °C 1021.2 hPa NNE 17.7 km/h 19.3 km/h 34% 0 mm meteobridge W/m2
17:45 25.8 °C 8.7 °C 1021.2 hPa NNE 25.9 km/h 30.6 km/h 34% 0 mm meteobridge W/m2
17:52 25.4 °C 8 °C 1021.2 hPa North 33.8 km/h 40.2 km/h 33% 0 mm meteobridge W/m2
18:00 24.6 °C 8.9 °C 1021.6 hPa NNE 27.4 km/h 32.2 km/h 37% 0 mm meteobridge W/m2
18:08 24.3 °C 9.1 °C 1021.6 hPa NNE 19.5 km/h 29 km/h 38% 0 mm meteobridge W/m2
18:14 24.2 °C 9 °C 1021.9 hPa NNE 9.7 km/h 17.7 km/h 38% 0 mm meteobridge W/m2
18:20 24.2 °C 9.4 °C 1022.2 hPa NE 7.9 km/h 11.3 km/h 39% 0 mm meteobridge W/m2
18:26 24.2 °C 9.4 °C 1022.2 hPa NE 9.7 km/h 9.7 km/h 39% 0 mm meteobridge W/m2
18:33 24.2 °C 9.4 °C 1022.6 hPa NE 9.7 km/h -1607.7 km/h 39% 0 mm meteobridge W/m2
18:39 24.2 °C 9.4 °C 1022.6 hPa North -1609.1 km/h -1607.7 km/h 39% 0 mm meteobridge W/m2
Regenstein, Windhoek, Namibia
Compliments of Weather Underground - 2.5 mb